createdAt,value
2022-08-12T04:04:10.729Z,101800.34
2022-08-12T04:09:16.130Z,101800.94
2022-08-12T04:14:22.061Z,101791.81
2022-08-12T04:19:26.306Z,101799.09
2022-08-12T04:24:31.941Z,101807.66
2022-08-12T04:30:31.371Z,101799.44
2022-08-12T04:34:57.020Z,101805.84
2022-08-12T04:40:00.072Z,101803.00
2022-08-12T04:45:02.705Z,101807.88
2022-08-12T04:50:34.059Z,101799.38
2022-08-12T04:55:34.658Z,101794.81
2022-08-12T05:00:38.242Z,101805.44
2022-08-12T05:05:42.827Z,101800.28
2022-08-12T05:10:46.592Z,101800.19
2022-08-12T05:16:04.640Z,101807.75
2022-08-12T05:21:09.398Z,101803.81
2022-08-12T05:26:11.894Z,101807.53
2022-08-12T05:31:14.166Z,101804.91
2022-08-12T05:36:36.577Z,101806.16
2022-08-12T05:41:39.593Z,101807.50
2022-08-12T05:46:42.087Z,101812.09
2022-08-12T05:51:44.761Z,101808.81
2022-08-12T05:56:48.060Z,101807.97
2022-08-12T06:02:10.006Z,101812.34
2022-08-12T06:07:59.229Z,101811.47
2022-08-12T06:12:36.326Z,101811.75
2022-08-12T06:17:38.606Z,101811.78
2022-08-12T06:22:45.219Z,101809.28
2022-08-12T06:28:07.497Z,101809.41
2022-08-12T06:33:20.850Z,101819.22
2022-08-12T06:38:28.165Z,101820.34
2022-08-12T06:43:31.039Z,101820.53
2022-08-12T06:48:58.863Z,101821.84
2022-08-12T06:54:02.135Z,101825.72
2022-08-12T06:59:05.854Z,101821.41
2022-08-12T07:04:33.664Z,101826.06
2022-08-12T07:10:04.088Z,101825.34
2022-08-12T07:14:52.707Z,101823.03
2022-08-12T07:19:59.239Z,101818.00
2022-08-12T07:25:22.851Z,101819.81
2022-08-12T07:30:25.293Z,101827.81
2022-08-12T07:35:32.654Z,101824.44
2022-08-12T07:40:34.963Z,101832.47
2022-08-12T07:45:37.279Z,101829.31
2022-08-12T07:50:39.632Z,101829.66
2022-08-12T07:55:42.134Z,101837.91
2022-08-12T08:00:44.582Z,101840.72
2022-08-12T08:05:46.864Z,101842.00
2022-08-12T08:10:51.761Z,101847.47
2022-08-12T08:16:04.150Z,101843.84
2022-08-12T08:21:06.811Z,101849.84
2022-08-12T08:26:10.712Z,101880.38
2022-08-12T08:31:14.392Z,101892.91
2022-08-12T08:36:23.881Z,101894.13
2022-08-12T08:42:15.825Z,101873.38
2022-08-12T08:47:10.820Z,101825.22
2022-08-12T08:52:13.062Z,101815.72
2022-08-12T08:57:43.385Z,101807.75
2022-08-12T09:02:49.313Z,101796.78
2022-08-12T09:14:10.770Z,101799.56
2022-08-12T09:18:52.473Z,101786.00
2022-08-12T09:24:06.162Z,101793.13
2022-08-12T09:29:12.096Z,101783.16
2022-08-12T09:34:29.553Z,101793.69
2022-08-12T09:40:01.469Z,101780.78
2022-08-12T09:45:17.773Z,101779.06
2022-08-12T09:50:23.199Z,101776.44
2022-08-12T09:56:06.954Z,101772.81
2022-08-12T10:00:52.166Z,101767.09
2022-08-12T10:06:19.404Z,101765.66
2022-08-12T10:12:10.147Z,101746.63
2022-08-12T10:16:59.142Z,101738.97
2022-08-12T10:22:01.608Z,101739.31
2022-08-12T10:27:23.172Z,101733.63
2022-08-12T10:32:44.157Z,101727.03
2022-08-12T10:38:38.347Z,101730.03
2022-08-12T10:43:29.005Z,101710.78
2022-08-12T10:49:05.585Z,101696.16
2022-08-12T10:54:16.959Z,101693.47
2022-08-12T11:00:29.090Z,101693.09
2022-08-12T11:04:49.719Z,101679.84
2022-08-12T11:10:00.478Z,101688.00
2022-08-12T11:15:19.510Z,101676.09
2022-08-12T11:20:30.841Z,101666.47
2022-08-12T11:25:42.419Z,101667.19
2022-08-12T11:30:55.862Z,101667.00
2022-08-12T11:36:14.622Z,101653.53
2022-08-12T11:41:31.362Z,101657.13
2022-08-12T11:46:37.059Z,101647.81
2022-08-12T11:51:39.907Z,101639.47
2022-08-12T11:56:44.818Z,101641.25
2022-08-12T12:02:05.081Z,101634.00
2022-08-12T12:07:11.226Z,101636.44
2022-08-12T12:12:14.776Z,101626.28
2022-08-12T12:17:17.778Z,101625.81
2022-08-12T12:22:23.628Z,101617.94
2022-08-12T12:27:44.388Z,101626.41
2022-08-12T12:32:53.354Z,101630.03
2022-08-12T12:38:05.540Z,101616.00
2022-08-12T12:43:14.999Z,101611.94
2022-08-12T12:48:19.292Z,101605.31
2022-08-12T12:54:05.916Z,101596.44
2022-08-12T12:58:51.566Z,101607.56
2022-08-12T13:03:56.504Z,101612.31
2022-08-12T13:09:04.597Z,101598.25
2022-08-12T13:14:12.693Z,101592.50
2022-08-12T13:19:16.215Z,101596.81
2022-08-12T13:24:25.711Z,101597.94
2022-08-12T13:29:34.061Z,101597.56
2022-08-12T13:34:37.263Z,101590.44
2022-08-12T13:39:39.693Z,101586.25
2022-08-12T13:44:43.084Z,101588.59
2022-08-12T13:49:55.234Z,101579.41
2022-08-12T13:54:59.306Z,101580.38
2022-08-12T14:00:02.284Z,101588.47
2022-08-12T14:05:38.108Z,101578.50
2022-08-12T14:10:50.695Z,101569.31
2022-08-12T14:15:55.654Z,101573.19
2022-08-12T14:21:02.260Z,101575.38
2022-08-12T14:26:11.853Z,101577.78
2022-08-12T14:31:18.295Z,101562.63
2022-08-12T14:36:25.455Z,101575.06
2022-08-12T14:41:36.522Z,101565.31
2022-08-12T14:46:39.953Z,101562.91
2022-08-12T14:53:13.534Z,101552.97
2022-08-12T14:57:20.333Z,101547.41
2022-08-12T15:02:28.493Z,101538.03
2022-08-12T15:07:33.833Z,101526.63
2022-08-12T15:12:51.645Z,101519.94
2022-08-12T15:18:02.466Z,101528.50
2022-08-12T15:23:18.047Z,101517.06
2022-08-12T15:28:25.623Z,101518.94
2022-08-12T15:33:45.515Z,101528.50
2022-08-12T15:38:50.137Z,101517.19
2022-08-12T15:44:20.126Z,101521.13
2022-08-12T15:49:19.166Z,101519.06
2022-08-12T15:54:33.428Z,101524.19
2022-08-12T16:00:04.562Z,101518.75
2022-08-12T16:05:01.274Z,101511.22
2022-08-12T16:10:08.546Z,101511.78
2022-08-12T16:15:13.680Z,101517.69
2022-08-12T16:20:21.827Z,101518.78
2022-08-12T16:26:02.656Z,101510.25
2022-08-12T16:30:56.201Z,101505.25
2022-08-12T16:35:58.487Z,101500.22
2022-08-12T16:41:02.300Z,101501.84
2022-08-12T16:46:32.264Z,101489.59
2022-08-12T16:51:29.919Z,101487.09
2022-08-12T16:56:39.831Z,101491.59
2022-08-12T17:01:56.699Z,101475.94
2022-08-12T17:07:01.445Z,101478.75
2022-08-12T17:12:04.841Z,101468.28
2022-08-12T17:17:18.280Z,101464.00
2022-08-12T17:22:30.355Z,101463.34
2022-08-12T17:27:34.152Z,101460.06
2022-08-12T17:32:39.659Z,101452.22
2022-08-12T17:37:43.137Z,101458.63
2022-08-12T17:42:47.683Z,101464.88
2022-08-12T17:48:01.507Z,101456.19
2022-08-12T17:53:10.808Z,101459.78
2022-08-12T17:58:13.983Z,101472.13
2022-08-12T18:04:06.977Z,101465.16
2022-08-12T18:08:54.770Z,101465.19
2022-08-12T18:13:57.701Z,101459.00
2022-08-12T18:19:02.254Z,101462.50
2022-08-12T18:24:05.032Z,101471.28
2022-08-12T18:29:27.171Z,101469.41
2022-08-12T18:34:45.295Z,101468.50
2022-08-12T18:40:15.225Z,101475.44
2022-08-12T18:45:19.785Z,101481.50
2022-08-12T18:50:24.578Z,101478.72
2022-08-12T18:55:27.094Z,101483.78
2022-08-12T19:00:40.519Z,101487.88
2022-08-12T19:05:54.447Z,101493.81
2022-08-12T19:11:16.324Z,101487.50
2022-08-12T19:16:21.442Z,101498.59
2022-08-12T19:21:25.253Z,101499.06
2022-08-12T19:26:28.425Z,101501.53
2022-08-12T19:31:44.871Z,101498.59
2022-08-12T19:37:02.370Z,101501.81
2022-08-12T19:42:06.727Z,101514.09
2022-08-12T19:47:11.952Z,101522.41
2022-08-12T19:52:21.758Z,101522.41
2022-08-12T19:57:25.980Z,101515.41
2022-08-12T20:02:33.200Z,101516.19
2022-08-12T20:07:42.944Z,101520.56
2022-08-12T20:13:18.170Z,101520.53
2022-08-12T20:18:53.691Z,101515.28
2022-08-12T20:24:00.213Z,101511.56
2022-08-12T20:29:07.487Z,101521.09
2022-08-12T20:34:28.622Z,101524.53
2022-08-12T20:39:51.805Z,101527.00
2022-08-12T20:44:54.166Z,101525.06
2022-08-12T20:50:01.497Z,101525.72
2022-08-12T20:55:15.340Z,101530.84
2022-08-12T21:00:28.011Z,101521.13
2022-08-12T21:06:12.116Z,101516.66
2022-08-12T21:11:11.949Z,101527.00
2022-08-12T21:16:14.289Z,101533.13
2022-08-12T21:21:23.701Z,101533.72
2022-08-12T21:26:28.203Z,101537.78
2022-08-12T21:32:36.602Z,101540.19
2022-08-12T21:36:53.581Z,101542.72
2022-08-12T21:41:59.144Z,101542.03
